Dolcinopolis, Brazil
Current Conditions -  °F | °C
As of 9:00 AM on Saturday 25 Oct 2014 (Local Time) from SBAU Reporting Station
Drizzle Drizzle  
Wind Chill: 70°   Ceiling: 2500
Heat Index: 70°   Visibility: 4mi
Dew Point: 68°   Wind: 5mph
Humidity: 94%   Direction: 50°NE
Pressure: 30"   Gusts: NA
Location:  20.12°S, 50.51°W
Report Text: SBAU 251100Z 05004KT 7000 -DZ SCT015 BKN025 OVC090 21/20 Q1016
Loading
Personal Weather Stations






























Interactive Weather Map
Tropical Storm Tracking
New forecast layout! Learn more

10-Day Weather Forecast

Advertisements
Track Severe Weather on mobile